Terminal Aerodrome Forecast
Issued by NWS

Home | Current Version | Previous Version | Text Only | Print | Product List | Glossary On
Versions: 1 2 3 4 5 6 7 8 9 10 11 12
413
FTUS46 KMTR 150524
TAFOAK
TAF
KOAK 150524Z 1506/1612 VRB04KT P6SM FEW200
     FM151900 25006KT P6SM FEW200
     FM152100 31008KT P6SM SCT200=

USA.gov is the U.S. government's official web portal to all federal, state and local government web resources and services.